Time;durP1;ratioP1;P1;durP2;ratioP2;P2;SDS_P1;SDS_P2;PMS_P1;PMS_P2;Temp;Humidity;BMP_temperature;BMP_pressure;BME280_temperature;BME280_humidity;BME280_pressure;Samples;Min_cycle;Max_cycle;Signal;HPM_P1;HPM_P2
2022/08/03 00:02:19;;;;;;;8.90;2.00;;;;;;;19.69;63.67;99453.97;5008486;28;20240;-77
2022/08/03 00:04:44;;;;;;;1.73;1.60;;;;;;;19.70;63.57;99450.31;5001426;28;20299;-77
2022/08/03 00:07:10;;;;;;;3.53;1.80;;;;;;;19.74;63.76;99448.97;5006350;28;20305;-77
2022/08/03 00:09:35;;;;;;;3.80;1.73;;;;;;;19.77;63.67;99454.00;5006360;28;20210;-77
2022/08/03 00:12:00;;;;;;;2.37;2.17;;;;;;;19.77;63.59;99451.34;5006905;28;20591;-77
2022/08/03 00:14:26;;;;;;;2.07;1.73;;;;;;;19.75;63.72;99451.50;5005486;28;20242;-76
2022/08/03 00:16:51;;;;;;;1.70;1.60;;;;;;;19.81;63.45;99445.50;5006183;28;20216;-77
2022/08/03 00:19:19;;;;;;;2.30;2.10;;;;;;;19.84;63.20;99452.34;5007606;28;20204;-76
2022/08/03 00:21:45;;;;;;;2.80;1.97;;;;;;;19.85;63.25;99444.19;5007663;28;20233;-76
2022/08/03 00:24:11;;;;;;;3.20;1.50;;;;;;;19.88;63.14;99443.88;5005924;28;20471;-77
2022/08/03 00:26:36;;;;;;;2.03;1.83;;;;;;;19.92;63.34;99440.88;5001933;28;20559;-76
2022/08/03 00:29:02;;;;;;;1.80;1.70;;;;;;;19.95;63.10;99443.22;5006187;28;20239;-78
2022/08/03 00:31:27;;;;;;;2.40;2.00;;;;;;;19.94;62.86;99442.41;5007406;28;20234;-76
2022/08/03 00:33:53;;;;;;;2.50;1.80;;;;;;;19.97;62.72;99438.56;5004450;28;20822;-77
2022/08/03 00:36:18;;;;;;;2.13;1.93;;;;;;;19.96;62.70;99428.91;5005057;28;20467;-77
2022/08/03 00:38:44;;;;;;;1.93;1.67;;;;;;;19.97;62.38;99431.41;5005937;28;20673;-77
2022/08/03 00:41:09;;;;;;;1.77;1.50;;;;;;;19.94;62.54;99434.41;5004815;28;20242;-77
2022/08/03 00:43:34;;;;;;;3.47;1.50;;;;;;;19.89;62.28;99431.38;5002945;28;20259;-78
2022/08/03 00:46:00;;;;;;;1.87;1.70;;;;;;;19.88;62.27;99432.38;5003123;28;20211;-76
2022/08/03 00:48:25;;;;;;;1.40;1.30;;;;;;;19.87;62.21;99430.69;5004025;28;20639;-77
2022/08/03 00:50:52;;;;;;;1.33;1.23;;;;;;;19.85;62.53;99436.22;5007311;28;20235;-79
2022/08/03 00:53:17;;;;;;;1.70;1.60;;;;;;;19.81;62.57;99426.84;5007183;28;20250;-79
2022/08/03 00:55:43;;;;;;;2.23;1.70;;;;;;;19.80;62.47;99432.34;5001231;28;20492;-78
2022/08/03 00:58:10;;;;;;;2.43;1.57;;;;;;;19.83;62.33;99427.53;5006753;28;20212;-77
2022/08/03 01:00:37;;;;;;;2.40;1.80;;;;;;;19.87;62.41;99425.38;5007518;28;20491;-76
2022/08/03 01:03:05;;;;;;;1.87;1.70;;;;;;;19.89;62.06;99431.38;5005486;28;20207;-76
2022/08/03 01:05:48;;;;;;;2.33;2.00;;;;;;;19.94;61.90;99425.56;5005389;28;20458;-76
2022/08/03 01:08:27;;;;;;;1.70;1.57;;;;;;;19.93;62.11;99423.88;5005108;28;20491;-76
2022/08/03 01:10:58;;;;;;;3.37;2.23;;;;;;;19.94;61.91;99428.22;5006806;28;20577;-77
2022/08/03 01:13:40;;;;;;;2.43;2.10;;;;;;;19.93;62.13;99429.22;5005890;28;20475;-76
2022/08/03 01:16:14;;;;;;;2.90;1.77;;;;;;;19.81;62.40;99432.19;4999664;28;20520;-76
2022/08/03 01:18:50;;;;;;;1.33;1.23;;;;;;;19.72;62.86;99435.00;4999756;28;20541;-76
2022/08/03 01:21:23;;;;;;;1.90;1.70;;;;;;;19.68;62.66;99426.47;4998970;28;20494;-77
2022/08/03 01:23:58;;;;;;;1.87;1.43;;;;;;;19.64;62.99;99420.59;4998950;28;20817;-76
2022/08/03 01:27:03;;;;;;;1.93;1.77;;;;;;;19.62;63.26;99424.41;4998538;28;20454;-78
2022/08/03 01:29:49;;;;;;;1.77;1.47;;;;;;;19.61;63.18;99422.75;4996279;28;20497;-78
2022/08/03 01:32:18;;;;;;;2.80;1.70;;;;;;;19.57;63.26;99424.06;5006247;28;20466;-76
2022/08/03 01:34:51;;;;;;;1.70;1.60;;;;;;;19.55;63.26;99424.25;5002829;28;21025;-76
2022/08/03 01:37:23;;;;;;;2.43;2.10;;;;;;;19.53;63.54;99423.56;5007718;28;20449;-78
2022/08/03 01:39:53;;;;;;;2.50;1.70;;;;;;;19.50;63.51;99421.22;5002607;28;20467;-76
2022/08/03 01:42:19;;;;;;;2.27;1.90;;;;;;;19.48;63.38;99417.88;5006828;28;20448;-78
2022/08/03 01:44:47;;;;;;;2.70;1.93;;;;;;;19.44;63.61;99422.69;5001199;28;20469;-78
2022/08/03 01:47:15;;;;;;;2.37;1.83;;;;;;;19.37;64.06;99423.47;5003240;28;20466;-76
2022/08/03 01:49:44;;;;;;;1.90;1.57;;;;;;;19.24;64.44;99419.41;5005156;28;20464;-79
2022/08/03 01:52:10;;;;;;;1.90;1.73;;;;;;;19.18;64.57;99419.22;5002904;28;22480;-77
2022/08/03 01:54:42;;;;;;;1.97;1.67;;;;;;;19.16;64.80;99413.19;5005800;28;20460;-77
2022/08/03 01:57:08;;;;;;;2.83;1.80;;;;;;;19.11;64.87;99411.00;5003975;28;20479;-76
2022/08/03 01:59:36;;;;;;;3.73;2.00;;;;;;;19.05;64.90;99414.31;5005551;28;20912;-76
2022/08/03 02:02:04;;;;;;;2.22;1.90;;;;;;;19.07;66.00;99414.16;4992533;28;20484;-77
2022/08/03 02:04:30;;;;;;;2.27;1.70;;;;;;;19.05;65.77;99413.47;5001500;28;20262;-77
2022/08/03 02:06:58;;;;;;;1.90;1.80;;;;;;;19.02;65.89;99412.78;5001294;28;20491;-76
2022/08/03 02:09:26;;;;;;;2.77;1.93;;;;;;;18.98;65.89;99415.91;5003901;28;20920;-77
2022/08/03 02:11:56;;;;;;;2.40;1.73;;;;;;;18.90;66.24;99413.19;5006454;28;20627;-77
2022/08/03 02:14:26;;;;;;;2.23;1.83;;;;;;;18.86;65.94;99409.19;5002699;28;20618;-77
2022/08/03 02:16:53;;;;;;;2.87;1.97;;;;;;;18.87;66.14;99408.19;4995666;28;20453;-76
2022/08/03 02:19:20;;;;;;;1.97;1.73;;;;;;;18.86;66.06;99409.19;5000642;28;21095;-76
2022/08/03 02:21:47;;;;;;;3.47;2.13;;;;;;;18.88;66.03;99415.19;5005847;28;20486;-76
2022/08/03 02:24:12;;;;;;;2.20;1.80;;;;;;;18.88;66.21;99416.03;5001504;28;20879;-76
2022/08/03 02:26:40;;;;;;;3.63;3.30;;;;;;;18.92;66.01;99416.53;5002624;28;20951;-76
2022/08/03 02:29:12;;;;;;;3.90;2.47;;;;;;;18.87;66.06;99419.66;5001829;28;20246;-76
2022/08/03 02:31:48;;;;;;;3.40;2.67;;;;;;;18.79;66.32;99420.47;5000780;28;20482;-76
2022/08/03 02:34:15;;;;;;;2.27;1.77;;;;;;;18.69;66.55;99417.03;5002862;28;20988;-82
2022/08/03 02:36:45;;;;;;;2.10;1.90;;;;;;;18.62;66.61;99407.97;5000632;28;20466;-80
2022/08/03 02:39:14;;;;;;;2.00;1.67;;;;;;;18.57;67.01;99404.94;5001065;28;20457;-79
2022/08/03 02:41:47;;;;;;;2.13;1.93;;;;;;;18.54;66.77;99407.91;5010268;28;20485;-79
2022/08/03 02:44:16;;;;;;;2.37;1.60;;;;;;;18.51;66.93;99400.25;5006430;28;20467;-81
2022/08/03 02:46:45;;;;;;;2.30;2.10;;;;;;;18.51;67.00;99405.56;5007712;28;20689;-79
2022/08/03 02:49:14;;;;;;;2.07;1.77;;;;;;;18.48;67.19;99401.38;5005892;28;20551;-79
2022/08/03 02:51:41;;;;;;;2.63;2.30;;;;;;;18.46;67.18;99403.34;5022202;28;20458;-79
2022/08/03 02:54:10;;;;;;;2.90;2.00;;;;;;;18.43;67.09;99401.00;5008531;28;20524;-81
2022/08/03 02:56:36;;;;;;;2.63;2.43;;;;;;;18.40;67.23;99387.19;5008111;28;20478;-79
2022/08/03 02:59:03;;;;;;;2.03;1.83;;;;;;;18.39;67.41;99391.66;5003148;28;20471;-78
2022/08/03 03:01:30;;;;;;;3.83;2.23;;;;;;;18.39;67.17;99402.31;5010656;28;20472;-79
2022/08/03 03:03:57;;;;;;;4.40;2.47;;;;;;;18.41;67.80;99388.84;5000584;28;20487;-79
2022/08/03 03:06:24;;;;;;;2.70;2.43;;;;;;;18.41;67.71;99389.66;5008269;28;20210;-79
2022/08/03 03:08:50;;;;;;;2.03;1.93;;;;;;;18.41;67.60;99396.81;5007237;28;20533;-79
2022/08/03 03:11:19;;;;;;;1.87;1.73;;;;;;;18.39;67.70;99391.66;5009548;28;20506;-80
2022/08/03 03:13:46;;;;;;;2.07;1.87;;;;;;;18.40;67.74;99393.31;5008002;28;20500;-79
2022/08/03 03:16:14;;;;;;;2.37;1.63;;;;;;;18.41;67.48;99388.84;5005995;28;20476;-80
2022/08/03 03:18:41;;;;;;;2.13;1.90;;;;;;;18.40;67.64;99390.66;5004617;28;20460;-78
2022/08/03 03:21:08;;;;;;;3.33;2.80;;;;;;;18.37;67.70;99390.97;5009808;28;21452;-80
2022/08/03 03:23:36;;;;;;;2.30;2.10;;;;;;;18.34;67.62;99392.13;5009815;28;20894;-79
2022/08/03 03:26:02;;;;;;;2.27;1.70;;;;;;;18.30;67.69;99396.06;5008288;28;20518;-80
2022/08/03 03:28:29;;;;;;;3.60;2.27;;;;;;;18.28;68.12;99402.50;5002396;28;20833;-78
2022/08/03 03:30:55;;;;;;;2.30;2.10;;;;;;;18.27;68.06;99399.03;5006166;28;20760;-79
2022/08/03 03:33:21;;;;;;;3.17;2.50;;;;;;;18.24;68.53;99396.69;5008978;28;20478;-79
2022/08/03 03:35:47;;;;;;;2.27;2.00;;;;;;;18.14;68.50;99402.06;5004992;28;20769;-78
2022/08/03 03:38:13;;;;;;;3.50;2.47;;;;;;;18.10;68.64;99407.84;5002268;28;20516;-80
2022/08/03 03:40:39;;;;;;;3.00;2.67;;;;;;;18.06;68.82;99403.81;5001218;28;20508;-80
2022/08/03 03:43:09;;;;;;;2.40;1.97;;;;;;;18.03;68.73;99412.06;5008498;28;20323;-79
2022/08/03 03:45:34;;;;;;;15.13;2.60;;;;;;;17.99;68.82;99414.22;5007913;28;20773;-79
2022/08/03 03:48:04;;;;;;;2.30;2.00;;;;;;;17.96;68.82;99411.84;5002990;28;21121;-78
2022/08/03 03:50:35;;;;;;;3.70;2.03;;;;;;;17.91;69.01;99414.13;4998775;28;20228;-79
2022/08/03 03:53:02;;;;;;;2.53;1.87;;;;;;;17.90;68.94;99420.41;5009479;28;20810;-78
2022/08/03 03:55:28;;;;;;;2.47;1.80;;;;;;;17.90;69.13;99417.75;5009333;28;20587;-78
2022/08/03 03:57:53;;;;;;;3.90;2.40;;;;;;;17.94;68.87;99411.16;5002803;28;20538;-78
2022/08/03 04:00:19;;;;;;;2.43;2.23;;;;;;;17.94;69.12;99421.78;5001149;28;20223;-76
2022/08/03 04:02:45;;;;;;;3.42;1.90;;;;;;;17.96;69.25;99416.31;4998714;28;20483;-77
2022/08/03 04:11:28;;;;;;;2.50;2.30;;;;;;;17.97;69.51;99425.97;5003415;28;21047;-77
2022/08/03 04:13:54;;;;;;;2.53;2.10;;;;;;;17.89;69.38;99421.41;5008822;28;20489;-76
2022/08/03 04:16:23;;;;;;;3.10;2.23;;;;;;;17.79;69.79;99421.44;5011324;28;20465;-76
2022/08/03 04:18:57;;;;;;;2.30;2.10;;;;;;;17.72;70.01;99428.31;5003928;28;20199;-78
2022/08/03 04:21:24;;;;;;;3.60;2.20;;;;;;;17.67;70.11;99433.25;5005921;28;20499;-77
2022/08/03 04:23:54;;;;;;;1.87;1.77;;;;;;;17.68;70.03;99425.09;5009574;28;20459;-78
2022/08/03 04:26:21;;;;;;;2.50;2.00;;;;;;;17.73;69.87;99423.84;5009418;28;20455;-76
2022/08/03 04:28:50;;;;;;;1.70;1.57;;;;;;;17.74;69.93;99437.00;5004842;28;20529;-77
2022/08/03 04:31:19;;;;;;;1.90;1.80;;;;;;;17.73;70.00;99431.81;5005580;28;20498;-77
2022/08/03 04:33:45;;;;;;;2.90;2.20;;;;;;;17.76;70.60;99435.00;5003974;28;20902;-76
2022/08/03 04:36:16;;;;;;;2.70;2.50;;;;;;;17.85;70.17;99435.97;5000863;28;20487;-76
2022/08/03 04:38:54;;;;;;;3.27;2.30;;;;;;;17.92;69.79;99442.34;5006600;28;20973;-77
2022/08/03 04:41:23;;;;;;;4.20;2.20;;;;;;;18.01;69.23;99446.78;5002749;28;20550;-77
2022/08/03 04:43:52;;;;;;;3.73;2.07;;;;;;;18.07;69.22;99440.03;5004044;28;20487;-76
2022/08/03 04:46:21;;;;;;;2.63;2.30;;;;;;;18.16;68.72;99439.13;5003055;28;20467;-77
2022/08/03 04:48:47;;;;;;;2.73;2.50;;;;;;;18.24;68.23;99439.22;5002693;28;20494;-78
2022/08/03 04:51:13;;;;;;;4.10;2.50;;;;;;;18.31;68.14;99439.47;5000125;28;21019;-76
2022/08/03 04:53:39;;;;;;;2.50;2.23;;;;;;;18.37;68.10;99446.81;5004045;28;20465;-77
2022/08/03 04:56:05;;;;;;;3.50;3.20;;;;;;;18.42;67.89;99441.06;5005903;28;20471;-76
2022/08/03 04:58:31;;;;;;;5.27;3.20;;;;;;;18.49;67.48;99444.75;5006094;28;20201;-80
2022/08/03 05:00:58;;;;;;;3.53;2.87;;;;;;;18.61;67.17;99446.22;4999349;28;20478;-77
2022/08/03 05:03:23;;;;;;;2.87;2.37;;;;;;;19.41;64.71;99448.78;5001691;28;20805;-76
2022/08/03 05:05:49;;;;;;;3.87;3.23;;;;;;;21.04;59.73;99440.38;5003316;28;20475;-76
2022/08/03 05:08:14;;;;;;;3.57;3.27;;;;;;;22.60;55.01;99440.56;5004492;28;20694;-77
2022/08/03 05:10:40;;;;;;;2.80;2.60;;;;;;;23.91;51.23;99439.22;4996816;28;20566;-76
2022/08/03 05:13:05;;;;;;;4.50;2.90;;;;;;;24.69;49.12;99439.47;4996723;28;20613;-77
2022/08/03 05:15:30;;;;;;;2.80;2.60;;;;;;;25.06;48.33;99441.00;4996538;28;20227;-79
2022/08/03 05:17:56;;;;;;;5.17;3.07;;;;;;;25.60;46.92;99436.81;4998776;28;20572;-78
2022/08/03 05:20:21;;;;;;;3.03;2.67;;;;;;;26.53;44.64;99434.47;5007196;28;20676;-79
2022/08/03 05:22:47;;;;;;;3.70;2.20;;;;;;;27.08;43.65;99436.97;4999179;28;20433;-78
2022/08/03 05:25:12;;;;;;;3.00;2.43;;;;;;;27.24;42.95;99433.03;4997950;28;20205;-78
2022/08/03 05:27:37;;;;;;;3.50;2.90;;;;;;;27.37;42.32;99441.09;4998557;28;20227;-78
2022/08/03 05:30:04;;;;;;;2.03;1.83;;;;;;;27.63;41.67;99431.28;5001442;28;20207;-78
2022/08/03 05:32:29;;;;;;;2.30;2.10;;;;;;;28.06;41.10;99436.09;5004710;28;20743;-79
2022/08/03 05:34:54;;;;;;;3.00;2.63;;;;;;;28.35;40.35;99435.50;5007513;28;20498;-78
2022/08/03 05:37:20;;;;;;;3.43;2.40;;;;;;;28.66;39.42;99434.72;5004675;28;20196;-78
2022/08/03 05:39:45;;;;;;;2.33;2.13;;;;;;;29.04;38.43;99430.28;5002804;28;20684;-78
2022/08/03 05:42:14;;;;;;;4.60;2.60;;;;;;;29.53;37.48;99428.50;5007742;28;20236;-77
2022/08/03 05:44:40;;;;;;;2.47;2.27;;;;;;;30.01;36.29;99422.34;4997033;28;20622;-78
2022/08/03 05:47:06;;;;;;;3.27;2.37;;;;;;;30.52;35.75;99418.28;4999302;28;20485;-79
2022/08/03 05:49:32;;;;;;;2.80;2.50;;;;;;;31.09;34.71;99415.06;4996461;28;23173;-78
2022/08/03 05:51:57;;;;;;;2.83;2.53;;;;;;;31.62;33.83;99418.66;4998688;28;20243;-79
2022/08/03 05:54:24;;;;;;;4.77;2.50;;;;;;;32.01;33.01;99424.38;4999952;28;20252;-79
2022/08/03 05:56:49;;;;;;;7.17;2.70;;;;;;;32.36;32.39;99422.31;5002660;28;20459;-78
2022/08/03 05:59:14;;;;;;;5.07;2.67;;;;;;;32.88;31.72;99418.56;5001663;28;20639;-79
2022/08/03 06:01:40;;;;;;;5.90;2.17;;;;;;;33.09;31.28;99419.75;4999581;28;20223;-78
2022/08/03 06:04:05;;;;;;;2.60;2.27;;;;;;;33.46;30.63;99416.44;5000153;28;20215;-79
2022/08/03 06:06:31;;;;;;;5.03;2.50;;;;;;;33.54;30.45;99420.63;5001590;28;20241;-78
2022/08/03 06:08:56;;;;;;;2.57;2.33;;;;;;;33.85;29.55;99422.66;5001662;28;20240;-79
2022/08/03 06:11:22;;;;;;;2.17;1.97;;;;;;;34.16;29.25;99417.56;5190943;22;20527;-80
2022/08/03 06:13:48;;;;;;;2.53;2.10;;;;;;;33.96;28.63;99420.06;5011032;28;20215;-80
2022/08/03 06:16:13;;;;;;;3.10;2.20;;;;;;;33.50;29.14;99420.28;5002598;28;20478;-80
2022/08/03 06:18:39;;;;;;;2.93;2.30;;;;;;;33.72;28.90;99420.31;5004400;28;20197;-80
2022/08/03 06:21:05;;;;;;;2.50;2.30;;;;;;;33.89;28.55;99423.81;5002750;28;20258;-84
2022/08/03 06:23:31;;;;;;;2.33;2.10;;;;;;;33.70;28.60;99420.59;5008107;28;20235;-80
2022/08/03 06:25:56;;;;;;;3.53;2.40;;;;;;;33.86;28.33;99418.03;5009047;28;20499;-80
2022/08/03 06:28:22;;;;;;;7.03;2.97;;;;;;;34.31;27.77;99416.91;5002002;28;20225;-81
2022/08/03 06:30:47;;;;;;;2.80;2.50;;;;;;;34.21;28.16;99417.63;5008261;28;20217;-81
2022/08/03 06:33:12;;;;;;;3.40;3.07;;;;;;;33.50;28.78;99418.38;5012587;28;20487;-83
2022/08/03 06:35:38;;;;;;;3.60;3.30;;;;;;;33.76;28.47;99415.22;5011033;28;20563;-81
2022/08/03 06:38:03;;;;;;;7.03;3.80;;;;;;;34.15;27.88;99410.47;5000021;28;20208;-81
2022/08/03 06:40:30;;;;;;;3.53;2.47;;;;;;;34.22;27.98;99407.56;5006757;28;20295;-80
2022/08/03 06:42:56;;;;;;;6.87;3.33;;;;;;;34.49;27.43;99411.06;5005014;28;20217;-81
2022/08/03 06:45:22;;;;;;;5.80;2.60;;;;;;;34.46;27.47;99418.94;5000614;28;20508;-84
2022/08/03 06:48:09;;;;;;;2.80;2.60;;;;;;;34.29;27.46;99411.69;4992890;28;20611;-80
2022/08/03 06:50:36;;;;;;;4.50;3.30;;;;;;;34.51;27.27;99414.38;4980584;28;20248;-81
2022/08/03 06:53:03;;;;;;;5.63;2.60;;;;;;;34.71;26.88;99410.19;4994984;28;20474;-81
2022/08/03 06:55:29;;;;;;;2.53;2.33;;;;;;;35.15;26.29;99404.50;4996659;28;20470;-83
2022/08/03 06:57:55;;;;;;;3.87;2.87;;;;;;;35.24;26.05;99411.94;4995287;28;20455;-80
2022/08/03 07:00:21;;;;;;;2.93;2.63;;;;;;;35.30;26.10;99417.44;4999004;28;20475;-80
2022/08/03 07:02:46;;;;;;;2.93;2.60;;;;;;;35.49;25.83;99413.16;5011932;28;20209;-82
2022/08/03 07:05:12;;;;;;;4.10;2.50;;;;;;;35.49;25.49;99417.78;4987501;28;20260;-83
2022/08/03 07:07:38;;;;;;;4.30;2.70;;;;;;;35.66;25.43;99415.72;4996589;28;20776;-82
2022/08/03 07:10:05;;;;;;;4.37;3.57;;;;;;;35.69;25.33;99420.63;4995497;28;20658;-81
2022/08/03 07:12:31;;;;;;;5.77;2.53;;;;;;;35.77;25.12;99416.56;5001839;28;20241;-81
2022/08/03 07:14:58;;;;;;;4.03;2.40;;;;;;;35.62;25.19;99423.63;4997835;28;20559;-81
2022/08/03 07:17:23;;;;;;;5.77;2.47;;;;;;;35.63;24.78;99416.25;4995412;28;20467;-81
2022/08/03 07:19:49;;;;;;;2.50;2.30;;;;;;;35.44;24.86;99424.88;4996254;28;20533;-85
2022/08/03 07:22:14;;;;;;;2.43;2.23;;;;;;;35.86;24.73;99417.66;4997402;28;20256;-81
2022/08/03 07:24:40;;;;;;;2.47;2.13;;;;;;;36.28;24.23;99417.53;4998907;28;20217;-82
2022/08/03 07:27:07;;;;;;;2.57;2.37;;;;;;;36.62;23.67;99411.56;5001070;28;20596;-81
2022/08/03 07:29:33;;;;;;;5.10;2.80;;;;;;;36.95;23.50;99414.81;5003745;28;20480;-81
2022/08/03 07:31:59;;;;;;;2.67;2.30;;;;;;;37.13;23.30;99414.28;5004978;28;20475;-84
2022/08/03 07:37:09;;;;;;;3.13;2.67;;;;;;;37.57;22.61;99415.53;5936659;22;20236;-78
2022/08/03 07:39:34;;;;;;;3.47;2.40;;;;;;;37.33;22.60;99416.13;5018195;28;20467;-78
2022/08/03 07:41:59;;;;;;;2.77;2.43;;;;;;;37.35;22.79;99410.38;5016052;28;20228;-77
2022/08/03 07:44:25;;;;;;;4.70;3.13;;;;;;;37.45;22.48;99406.75;5013682;28;21231;-79
2022/08/03 07:46:50;;;;;;;2.60;2.40;;;;;;;37.58;22.43;99408.94;5016832;28;20216;-80
2022/08/03 07:49:16;;;;;;;4.53;2.57;;;;;;;37.59;22.23;99400.44;5012180;28;20283;-78
2022/08/03 07:51:41;;;;;;;4.83;2.20;;;;;;;37.38;22.25;99407.06;5014859;28;20244;-78
2022/08/03 07:54:08;;;;;;;3.30;2.57;;;;;;;37.45;22.15;99404.84;5008572;28;20208;-79
2022/08/03 07:56:35;;;;;;;2.13;1.93;;;;;;;37.09;22.44;99402.22;5016197;28;20536;-80
2022/08/03 07:59:01;;;;;;;2.40;2.20;;;;;;;36.50;23.15;99405.50;5007324;28;20486;-80
2022/08/03 08:01:28;;;;;;;3.10;2.80;;;;;;;36.50;23.28;99406.31;5006065;28;20503;-78
2022/08/03 08:03:53;;;;;;;2.57;2.37;;;;;;;36.69;22.75;99406.63;5010892;28;20467;-80
2022/08/03 08:06:20;;;;;;;2.93;2.10;;;;;;;37.24;22.23;99401.38;5006461;28;20815;-79
2022/08/03 08:08:45;;;;;;;3.00;2.43;;;;;;;37.69;21.53;99401.47;5005804;28;20448;-80
2022/08/03 08:11:11;;;;;;;3.20;2.70;;;;;;;37.89;21.41;99393.16;5008656;28;20576;-80
2022/08/03 08:13:37;;;;;;;2.90;2.10;;;;;;;38.19;21.00;99391.34;5009348;28;20205;-79
2022/08/03 08:16:03;;;;;;;3.27;2.97;;;;;;;38.13;20.69;99397.97;5010428;28;20685;-80
2022/08/03 08:18:29;;;;;;;2.60;2.40;;;;;;;38.02;20.77;99397.22;5002240;28;20474;-78
2022/08/03 08:20:55;;;;;;;5.13;2.43;;;;;;;38.13;20.82;99397.97;5011362;28;20479;-79
2022/08/03 08:23:22;;;;;;;2.40;2.20;;;;;;;37.76;21.51;99405.56;5009272;28;20221;-80
2022/08/03 08:25:49;;;;;;;2.53;2.27;;;;;;;37.39;21.93;99400.47;5006725;28;20221;-79
2022/08/03 08:28:16;;;;;;;5.03;3.00;;;;;;;37.29;21.95;99398.59;5009182;28;20509;-80
2022/08/03 08:30:42;;;;;;;2.93;2.63;;;;;;;37.22;22.04;99403.56;5006904;28;20467;-79
2022/08/03 08:33:07;;;;;;;3.40;2.83;;;;;;;37.23;21.60;99401.63;5011295;28;20483;-79
2022/08/03 08:35:32;;;;;;;3.00;2.37;;;;;;;37.35;21.51;99396.69;5006498;28;20218;-80
2022/08/03 08:38:01;;;;;;;5.17;3.03;;;;;;;37.14;22.06;99395.91;5008760;28;20244;-78
2022/08/03 08:40:27;;;;;;;3.60;2.90;;;;;;;37.19;22.27;99395.91;5007651;28;20218;-80
2022/08/03 08:42:52;;;;;;;2.90;2.67;;;;;;;37.14;22.43;99387.69;5495075;22;20602;-81
2022/08/03 08:45:18;;;;;;;3.03;2.73;;;;;;;36.54;22.98;99396.53;5006896;28;20467;-80
2022/08/03 08:47:46;;;;;;;3.90;2.90;;;;;;;35.38;25.09;99397.81;5003849;28;20315;-79
2022/08/03 08:50:12;;;;;;;5.50;3.30;;;;;;;34.37;26.46;99394.84;5008373;28;20887;-80
2022/08/03 08:52:44;;;;;;;3.40;3.10;;;;;;;33.64;27.99;99399.78;5009955;28;20479;-80
2022/08/03 08:58:03;;;;;;;3.23;2.93;;;;;;;32.75;29.58;99397.13;4995101;28;20888;-91
2022/08/03 09:00:30;;;;;;;2.70;2.50;;;;;;;32.41;29.83;99394.41;4999248;28;21042;-91
2022/08/03 09:02:58;;;;;;;3.35;2.95;;;;;;;32.29;30.05;99394.44;5003993;28;20486;-90
2022/08/03 09:12:44;;;;;;;3.17;2.20;;;;;;;32.33;30.06;99387.47;4999850;23;21056;-77
2022/08/03 09:15:24;;;;;;;3.33;2.57;;;;;;;32.18;30.13;99392.63;5023817;28;20479;-77
2022/08/03 09:17:51;;;;;;;4.43;2.50;;;;;;;32.20;30.39;99390.50;5023615;28;20447;-77
2022/08/03 09:20:18;;;;;;;3.77;2.40;;;;;;;32.31;30.58;99386.06;5022851;28;20787;-76
2022/08/03 09:23:03;;;;;;;3.43;2.90;;;;;;;32.65;29.91;99386.09;5021703;28;20970;-77
2022/08/03 09:25:30;;;;;;;3.07;2.43;;;;;;;32.95;29.52;99383.84;5024948;28;20462;-77
2022/08/03 09:28:14;;;;;;;2.90;2.60;;;;;;;33.14;28.79;99378.16;5024907;28;20485;-77
2022/08/03 09:30:44;;;;;;;3.30;2.90;;;;;;;33.15;28.72;99380.63;5022169;28;20593;-77
2022/08/03 09:33:15;;;;;;;2.73;2.53;;;;;;;33.32;28.99;99375.13;5024545;28;20218;-77
2022/08/03 09:35:42;;;;;;;4.00;2.90;;;;;;;33.55;28.49;99376.00;5025431;28;20498;-76
2022/08/03 09:38:22;;;;;;;2.90;2.40;;;;;;;33.74;28.27;99376.50;5026270;28;20454;-78
2022/08/03 09:40:49;;;;;;;2.53;2.33;;;;;;;33.71;28.34;99366.94;5024367;28;20462;-76
2022/08/03 09:43:15;;;;;;;4.80;2.57;;;;;;;33.67;28.36;99365.78;5024410;28;20832;-78
2022/08/03 09:45:41;;;;;;;2.90;2.60;;;;;;;33.68;28.28;99365.53;5031543;28;20450;-76
2022/08/03 09:48:28;;;;;;;2.10;2.00;;;;;;;33.80;27.95;99364.56;5028968;28;20303;-76
2022/08/03 09:50:59;;;;;;;3.80;2.83;;;;;;;33.96;27.53;99363.63;5023203;28;20501;-77
2022/08/03 09:53:25;;;;;;;2.97;2.67;;;;;;;34.26;27.25;99349.50;5025955;28;20897;-77
2022/08/03 09:55:54;;;;;;;2.77;2.43;;;;;;;34.40;26.84;99362.72;5026103;28;20503;-77
2022/08/03 09:58:21;;;;;;;3.30;2.63;;;;;;;34.49;27.25;99361.16;5031716;28;20484;-78
2022/08/03 10:00:55;;;;;;;2.27;2.07;;;;;;;34.66;26.72;99355.59;5028640;28;20481;-78
2022/08/03 10:03:21;;;;;;;2.37;2.17;;;;;;;34.87;26.10;99351.09;5041480;28;20512;-78
2022/08/03 10:05:46;;;;;;;2.50;2.30;;;;;;;34.78;25.70;99353.47;5023886;28;20494;-75
2022/08/03 10:08:17;;;;;;;3.17;2.57;;;;;;;34.28;26.50;99346.53;5021130;28;20514;-77
2022/08/03 10:10:45;;;;;;;2.80;2.60;;;;;;;34.17;26.58;99352.97;5022681;28;20208;-77
2022/08/03 10:13:13;;;;;;;3.67;2.30;;;;;;;34.11;27.14;99347.47;5029279;28;20502;-76
2022/08/03 10:15:39;;;;;;;4.27;2.33;;;;;;;34.39;26.67;99342.81;5022829;28;20462;-78
2022/08/03 10:18:05;;;;;;;3.50;2.10;;;;;;;34.64;26.60;99344.09;5039016;28;20569;-78
2022/08/03 10:20:35;;;;;;;3.53;3.23;;;;;;;34.95;26.64;99337.75;5031173;28;20545;-78
2022/08/03 10:23:01;;;;;;;2.70;2.17;;;;;;;34.97;26.95;99343.78;5031342;28;20531;-79
2022/08/03 10:25:29;;;;;;;3.03;2.40;;;;;;;35.09;26.85;99337.31;5027079;28;20988;-79
2022/08/03 10:27:57;;;;;;;3.23;2.37;;;;;;;35.28;26.76;99340.41;5032170;28;21024;-78
2022/08/03 10:30:26;;;;;;;2.80;2.60;;;;;;;35.43;26.35;99341.28;5025052;28;20446;-79
2022/08/03 10:33:02;;;;;;;4.13;2.90;;;;;;;35.53;27.00;99332.28;5027848;28;20454;-78
2022/08/03 10:35:29;;;;;;;3.40;2.53;;;;;;;35.76;26.67;99320.09;5025877;28;20535;-78
2022/08/03 10:37:56;;;;;;;8.53;3.33;;;;;;;35.99;26.06;99324.22;5021559;28;20454;-78
2022/08/03 10:40:25;;;;;;;2.57;2.37;;;;;;;35.99;25.78;99326.13;5024982;28;20458;-77
2022/08/03 10:42:54;;;;;;;4.53;2.93;;;;;;;35.76;25.54;99319.28;5025701;28;20463;-78
2022/08/03 10:45:24;;;;;;;2.60;2.40;;;;;;;35.80;25.59;99321.19;5026025;28;20449;-78
2022/08/03 10:47:51;;;;;;;1.77;1.67;;;;;;;35.76;25.67;99316.56;5023685;28;20482;-78
2022/08/03 10:50:18;;;;;;;2.90;2.27;;;;;;;35.67;25.67;99310.78;5024243;28;20504;-77
2022/08/03 10:53:01;;;;;;;5.00;2.27;;;;;;;35.43;25.27;99316.72;5028401;28;20478;-78
2022/08/03 10:58:46;;;;;;;3.60;2.40;;;;;;;35.43;25.06;99305.78;5029850;28;20488;-78
2022/08/03 11:01:12;;;;;;;2.73;1.90;;;;;;;35.54;24.87;99303.06;5037277;28;20579;-79
2022/08/03 11:03:56;;;;;;;3.17;2.40;;;;;;;35.74;24.24;99303.16;5033036;28;20505;-79
2022/08/03 11:06:25;;;;;;;4.33;2.57;;;;;;;35.94;24.35;99298.78;5039491;28;20392;-77
2022/08/03 11:09:09;;;;;;;3.60;2.70;;;;;;;35.99;24.92;99299.63;5030050;28;20482;-77
2022/08/03 11:11:36;;;;;;;3.93;2.10;;;;;;;35.76;25.10;99290.03;5018879;28;20486;-77
2022/08/03 11:14:07;;;;;;;5.43;3.17;;;;;;;35.57;25.29;99291.66;5022647;28;20813;-77
2022/08/03 11:16:40;;;;;;;4.73;2.33;;;;;;;35.53;25.65;99293.22;5024206;28;20853;-77
2022/08/03 11:19:08;;;;;;;2.50;2.00;;;;;;;35.35;25.58;99291.81;5022997;28;20881;-77
2022/08/03 11:21:52;;;;;;;3.00;2.27;;;;;;;35.21;25.46;99291.50;5025644;28;20527;-78
2022/08/03 11:24:37;;;;;;;2.33;2.13;;;;;;;34.89;26.09;99277.94;5023462;28;21089;-78
2022/08/03 11:27:18;;;;;;;2.67;2.20;;;;;;;35.00;26.34;99279.66;5033007;28;20458;-78
2022/08/03 11:29:57;;;;;;;2.50;2.30;;;;;;;35.15;26.45;99276.19;5031277;28;20462;-78
2022/08/03 11:32:44;;;;;;;2.83;2.40;;;;;;;35.08;26.68;99270.13;5027362;28;20465;-77
2022/08/03 11:35:27;;;;;;;3.30;2.30;;;;;;;35.00;26.51;99279.66;5027940;28;20501;-77
2022/08/03 11:37:53;;;;;;;2.50;2.20;;;;;;;34.91;26.75;99282.06;5029923;28;20818;-78
2022/08/03 11:40:38;;;;;;;2.90;2.70;;;;;;;34.94;26.74;99275.25;5025686;28;20515;-78
2022/08/03 11:43:28;;;;;;;3.10;2.90;;;;;;;34.91;26.88;99275.78;5031841;28;20212;-78
2022/08/03 11:45:56;;;;;;;7.33;3.37;;;;;;;34.77;27.16;99275.44;5021033;28;21216;-78
2022/08/03 11:48:25;;;;;;;3.17;2.87;;;;;;;34.75;27.09;99272.16;5019155;28;20474;-76
2022/08/03 11:50:51;;;;;;;2.77;2.10;;;;;;;34.70;27.23;99275.69;5017913;28;20473;-77
2022/08/03 11:53:18;;;;;;;2.53;2.33;;;;;;;34.61;26.76;99268.25;5020631;28;20454;-77
2022/08/03 11:55:47;;;;;;;2.73;2.27;;;;;;;34.59;26.77;99273.97;5022456;28;20708;-77
2022/08/03 11:58:22;;;;;;;4.13;2.70;;;;;;;34.66;26.70;99273.75;5020669;28;20596;-77
2022/08/03 12:00:49;;;;;;;3.67;2.80;;;;;;;34.70;26.55;99269.38;5017957;28;20503;-75
2022/08/03 12:03:17;;;;;;;3.10;2.23;;;;;;;34.77;26.64;99259.06;5015785;28;21007;-76